Time;durP1;ratioP1;P1;durP2;ratioP2;P2;SDS_P1;SDS_P2;PMS_P1;PMS_P2;Temp;Humidity;BMP_temperature;BMP_pressure;BME280_temperature;BME280_humidity;BME280_pressure;Samples;Min_cycle;Max_cycle;Signal;HPM_P1;HPM_P2
2021/07/15 00:00:53;;;;;;;18.58;13.88;;;;;;;;;;4652153;30;20444;-84
2021/07/15 00:03:21;;;;;;;18.58;14.15;;;;;;;;;;4685193;30;20038;-84
2021/07/15 00:05:47;;;;;;;15.57;13.35;;;;;;;;;;4683944;30;20466;-84
2021/07/15 00:08:15;;;;;;;19.67;14.30;;;;;;;;;;4653491;30;20042;-84
2021/07/15 00:10:44;;;;;;;20.67;14.65;;;;;;;;;;4679920;30;20078;-84
2021/07/15 00:13:10;;;;;;;17.27;13.90;;;;;;;;;;4668362;30;20033;-84
2021/07/15 00:15:40;;;;;;;20.85;13.40;;;;;;;;;;4641924;30;20042;-84
2021/07/15 00:18:09;;;;;;;18.88;12.52;;;;;;;;;;4681249;30;20034;-84
2021/07/15 00:20:38;;;;;;;16.20;12.38;;;;;;;;;;4668134;30;20073;-83
2021/07/15 00:23:05;;;;;;;17.58;13.05;;;;;;;;;;4669545;30;20041;-83
2021/07/15 00:25:30;;;;;;;16.05;12.40;;;;;;;;;;4640819;30;20034;-83
2021/07/15 00:27:55;;;;;;;16.48;11.95;;;;;;;;;;4668189;30;20053;-83
2021/07/15 00:30:21;;;;;;;15.02;12.50;;;;;;;;;;4652718;30;20452;-83
2021/07/15 00:32:46;;;;;;;19.35;12.98;;;;;;;;;;4637248;30;20121;-83
2021/07/15 00:35:13;;;;;;;16.45;11.80;;;;;;;;;;4652048;30;20377;-83
2021/07/15 00:37:38;;;;;;;17.35;12.88;;;;;;;;;;4669555;30;20030;-83
2021/07/15 00:40:07;;;;;;;15.20;11.80;;;;;;;;;;4655693;30;20064;-83
2021/07/15 00:42:32;;;;;;;18.90;12.27;;;;;;;;;;4670417;30;20499;-83
2021/07/15 00:44:58;;;;;;;18.88;12.77;;;;;;;;;;4655396;30;20038;-83
2021/07/15 00:47:23;;;;;;;15.68;12.30;;;;;;;;;;4682688;30;20042;-83
2021/07/15 00:49:48;;;;;;;16.45;12.88;;;;;;;;;;4670054;30;20042;-83
2021/07/15 00:52:14;;;;;;;18.15;12.93;;;;;;;;;;4653355;30;20085;-83
2021/07/15 00:54:42;;;;;;;17.30;13.63;;;;;;;;;;4683926;30;20396;-83
2021/07/15 00:57:08;;;;;;;17.75;14.00;;;;;;;;;;4685878;30;20045;-83
2021/07/15 00:59:34;;;;;;;20.40;12.90;;;;;;;;;;4685139;30;20369;-83
2021/07/15 01:02:00;;;;;;;21.65;14.27;;;;;;;;;;4651675;30;20045;-83
2021/07/15 01:04:26;;;;;;;18.30;13.50;;;;;;;;;;4651632;30;20432;-83
2021/07/15 01:06:51;;;;;;;17.25;13.70;;;;;;;;;;4665138;30;20042;-83
2021/07/15 01:09:17;;;;;;;15.77;13.13;;;;;;;;;;4653260;30;20488;-83
2021/07/15 01:11:52;;;;;;;14.07;11.82;;;;;;;;;;4667355;30;20129;-83
2021/07/15 01:14:26;;;;;;;16.92;13.55;;;;;;;;;;4666950;30;20046;-83
2021/07/15 01:17:04;;;;;;;19.00;13.20;;;;;;;;;;4667381;30;20489;-83
2021/07/15 01:20:05;;;;;;;20.77;14.32;;;;;;;;;;4665417;30;20034;-83
2021/07/15 01:22:36;;;;;;;18.33;13.35;;;;;;;;;;4657687;30;20038;-83
2021/07/15 01:25:32;;;;;;;15.45;12.23;;;;;;;;;;4664855;30;20041;-83
2021/07/15 01:28:33;;;;;;;18.63;14.07;;;;;;;;;;4679957;30;20038;-83
2021/07/15 01:31:02;;;;;;;15.13;13.00;;;;;;;;;;4631852;30;20108;-83
2021/07/15 01:33:30;;;;;;;20.13;15.23;;;;;;;;;;4666273;30;20115;-83
2021/07/15 01:36:07;;;;;;;20.02;15.85;;;;;;;;;;4656449;30;20030;-83
2021/07/15 01:38:42;;;;;;;20.02;14.70;;;;;;;;;;4661069;30;20030;-83
2021/07/15 01:41:15;;;;;;;19.55;14.70;;;;;;;;;;4663142;30;20506;-83
2021/07/15 01:43:51;;;;;;;17.50;14.15;;;;;;;;;;4674321;30;20065;-83
2021/07/15 01:46:17;;;;;;;19.98;15.48;;;;;;;;;;4666545;30;20030;-83
2021/07/15 01:48:45;;;;;;;19.70;14.18;;;;;;;;;;4635361;30;20057;-83
2021/07/15 01:51:11;;;;;;;22.80;13.93;;;;;;;;;;4663775;30;20048;-84
2021/07/15 01:53:38;;;;;;;18.98;14.45;;;;;;;;;;4648929;30;20030;-84
2021/07/15 01:56:06;;;;;;;18.05;13.48;;;;;;;;;;4663618;30;20030;-84
2021/07/15 01:58:34;;;;;;;19.08;14.55;;;;;;;;;;4667198;30;20563;-83
2021/07/15 02:01:01;;;;;;;16.42;13.60;;;;;;;;;;4663336;30;20049;-83
2021/07/15 02:03:28;;;;;;;17.40;13.00;;;;;;;;;;4651053;30;20042;-84
2021/07/15 02:05:55;;;;;;;20.50;14.35;;;;;;;;;;4647842;30;20050;-83
2021/07/15 02:08:22;;;;;;;17.48;13.85;;;;;;;;;;4646820;30;20109;-83
2021/07/15 02:10:48;;;;;;;17.00;12.57;;;;;;;;;;4666257;30;21370;-83
2021/07/15 02:13:14;;;;;;;17.50;13.07;;;;;;;;;;4665265;30;20042;-83
2021/07/15 02:15:40;;;;;;;15.52;12.32;;;;;;;;;;4665648;30;20467;-83
2021/07/15 02:18:16;;;;;;;13.00;10.43;;;;;;;;;;4665131;30;20039;-83
2021/07/15 02:20:43;;;;;;;17.88;12.02;;;;;;;;;;4661304;30;20045;-83
2021/07/15 02:23:10;;;;;;;15.02;11.45;;;;;;;;;;4638856;30;20054;-83
2021/07/15 02:25:41;;;;;;;16.95;12.52;;;;;;;;;;4660771;30;20039;-84
2021/07/15 02:28:09;;;;;;;21.70;13.57;;;;;;;;;;4649695;30;20129;-84
2021/07/15 02:30:35;;;;;;;18.23;12.63;;;;;;;;;;4646691;30;20049;-83
2021/07/15 02:33:08;;;;;;;18.00;13.55;;;;;;;;;;4647439;30;20034;-84
2021/07/15 02:35:39;;;;;;;18.40;13.38;;;;;;;;;;4665578;30;20043;-84
2021/07/15 02:38:08;;;;;;;21.08;15.10;;;;;;;;;;4651060;30;20043;-84
2021/07/15 02:40:34;;;;;;;18.08;13.43;;;;;;;;;;4661879;30;20456;-84
2021/07/15 02:43:00;;;;;;;21.35;14.40;;;;;;;;;;4659786;30;20125;-84
2021/07/15 02:45:25;;;;;;;20.08;14.38;;;;;;;;;;4656279;30;20050;-84
2021/07/15 02:47:52;;;;;;;19.25;14.43;;;;;;;;;;4650118;30;20133;-84
2021/07/15 02:50:21;;;;;;;17.08;13.07;;;;;;;;;;4650368;30;20034;-84
2021/07/15 02:52:49;;;;;;;18.67;13.57;;;;;;;;;;4664638;30;20041;-84
2021/07/15 02:55:14;;;;;;;15.63;12.05;;;;;;;;;;4650251;30;20499;-84
2021/07/15 02:57:48;;;;;;;16.50;11.52;;;;;;;;;;4668230;30;20042;-84
2021/07/15 03:00:16;;;;;;;16.10;12.07;;;;;;;;;;4665800;30;20045;-84
2021/07/15 03:02:56;;;;;;;16.05;11.98;;;;;;;;;;4660988;30;20097;-84
2021/07/15 03:05:29;;;;;;;15.70;12.32;;;;;;;;;;4675729;30;20078;-83
2021/07/15 03:08:06;;;;;;;17.83;12.98;;;;;;;;;;4659980;30;20038;-83
2021/07/15 03:10:34;;;;;;;17.08;11.95;;;;;;;;;;4666163;30;20042;-84
2021/07/15 03:13:01;;;;;;;19.17;13.23;;;;;;;;;;4659572;30;20054;-84
2021/07/15 03:15:27;;;;;;;14.23;11.90;;;;;;;;;;4656181;30;20468;-84
2021/07/15 03:17:54;;;;;;;16.25;11.70;;;;;;;;;;4651565;30;20038;-84
2021/07/15 03:20:33;;;;;;;16.98;12.35;;;;;;;;;;4667163;30;20133;-83
2021/07/15 03:23:01;;;;;;;15.95;11.63;;;;;;;;;;4663479;30;20042;-84
2021/07/15 03:25:28;;;;;;;19.40;12.60;;;;;;;;;;4665479;30;20093;-84
2021/07/15 03:27:56;;;;;;;13.20;10.40;;;;;;;;;;4648446;30;20461;-84
2021/07/15 03:30:25;;;;;;;14.60;10.60;;;;;;;;;;4661661;30;20069;-84
2021/07/15 03:32:51;;;;;;;14.00;9.60;;;;;;;;;;4652243;30;20073;-84
2021/07/15 03:35:17;;;;;;;10.13;8.32;;;;;;;;;;4653222;30;20046;-83
2021/07/15 03:37:44;;;;;;;11.90;8.13;;;;;;;;;;4648827;30;20038;-83
2021/07/15 03:40:12;;;;;;;14.13;9.60;;;;;;;;;;4651548;30;20133;-83
2021/07/15 03:42:38;;;;;;;12.85;9.13;;;;;;;;;;4664243;30;20034;-83
2021/07/15 03:45:05;;;;;;;14.25;9.00;;;;;;;;;;4664518;30;20492;-84
2021/07/15 03:47:33;;;;;;;14.20;9.32;;;;;;;;;;4652088;30;20501;-84
2021/07/15 03:49:59;;;;;;;9.43;7.93;;;;;;;;;;4663794;30;20034;-84
2021/07/15 03:52:25;;;;;;;10.32;8.57;;;;;;;;;;4650424;30;20408;-84
2021/07/15 03:54:52;;;;;;;12.48;9.05;;;;;;;;;;4646842;30;20050;-84
2021/07/15 03:57:19;;;;;;;12.75;9.95;;;;;;;;;;4664795;30;20034;-84
2021/07/15 03:59:47;;;;;;;11.75;8.90;;;;;;;;;;4661716;30;20049;-84
2021/07/15 04:02:15;;;;;;;11.70;7.78;;;;;;;;;;4665822;30;20048;-83
2021/07/15 04:04:48;;;;;;;11.82;7.82;;;;;;;;;;4668056;30;20058;-84
2021/07/15 04:07:20;;;;;;;10.48;9.10;;;;;;;;;;4651912;30;20496;-84
2021/07/15 04:09:48;;;;;;;10.82;9.15;;;;;;;;;;4647599;30;20461;-84
2021/07/15 04:12:15;;;;;;;10.98;9.05;;;;;;;;;;4654996;30;20030;-84
2021/07/15 04:15:02;;;;;;;10.20;7.80;;;;;;;;;;4637412;30;20493;-84
2021/07/15 04:17:31;;;;;;;10.32;7.47;;;;;;;;;;4650358;30;20507;-84
2021/07/15 04:19:59;;;;;;;8.63;6.97;;;;;;;;;;4666718;30;20440;-84
2021/07/15 04:22:27;;;;;;;11.05;8.20;;;;;;;;;;4651885;30;20038;-84
2021/07/15 04:24:53;;;;;;;9.85;7.93;;;;;;;;;;4651398;30;20042;-84
2021/07/15 04:27:18;;;;;;;9.05;7.28;;;;;;;;;;4634255;30;20393;-84
2021/07/15 04:29:46;;;;;;;11.32;7.95;;;;;;;;;;4636321;30;20079;-84
2021/07/15 04:32:26;;;;;;;9.73;7.13;;;;;;;;;;4641464;30;20039;-84
2021/07/15 04:34:53;;;;;;;9.23;6.95;;;;;;;;;;4665497;30;20038;-84
2021/07/15 04:37:20;;;;;;;8.90;6.72;;;;;;;;;;4665285;30;20400;-84
2021/07/15 04:39:46;;;;;;;8.85;7.07;;;;;;;;;;4645892;30;20041;-84
2021/07/15 04:42:14;;;;;;;9.20;6.88;;;;;;;;;;4651568;30;20026;-84
2021/07/15 04:44:40;;;;;;;10.20;8.13;;;;;;;;;;4635573;30;20050;-84
2021/07/15 04:47:07;;;;;;;9.38;6.65;;;;;;;;;;4636710;30;20496;-84
2021/07/15 04:49:33;;;;;;;8.48;7.07;;;;;;;;;;4636850;30;20042;-84
2021/07/15 04:52:00;;;;;;;8.45;7.03;;;;;;;;;;4649865;30;20044;-84
2021/07/15 04:54:29;;;;;;;8.70;5.90;;;;;;;;;;4640695;30;20045;-84
2021/07/15 04:56:55;;;;;;;7.85;6.45;;;;;;;;;;4649002;30;20065;-84
2021/07/15 04:59:22;;;;;;;9.95;6.30;;;;;;;;;;4651065;30;20563;-84
2021/07/15 05:01:48;;;;;;;7.88;5.70;;;;;;;;;;4650208;30;20121;-84
2021/07/15 05:04:13;;;;;;;7.78;5.78;;;;;;;;;;4651184;30;20117;-84
2021/07/15 05:06:39;;;;;;;6.85;5.32;;;;;;;;;;4653041;30;20077;-84
2021/07/15 05:09:04;;;;;;;8.25;5.57;;;;;;;;;;4653811;30;20137;-84
2021/07/15 05:11:35;;;;;;;7.60;5.57;;;;;;;;;;4660940;30;20105;-84
2021/07/15 05:14:04;;;;;;;8.85;5.32;;;;;;;;;;4678509;30;20034;-84
2021/07/15 05:16:30;;;;;;;7.50;4.93;;;;;;;;;;4660706;30;20046;-84
2021/07/15 05:18:56;;;;;;;6.85;4.88;;;;;;;;;;4653383;30;20377;-84
2021/07/15 05:21:21;;;;;;;8.38;5.40;;;;;;;;;;4668058;30;20054;-84
2021/07/15 05:23:47;;;;;;;7.47;5.20;;;;;;;;;;4653017;30;20044;-84
2021/07/15 05:26:12;;;;;;;7.40;4.70;;;;;;;;;;4682518;30;20101;-84
2021/07/15 05:28:39;;;;;;;8.40;5.30;;;;;;;;;;4652923;30;20124;-84
2021/07/15 05:31:04;;;;;;;6.13;4.93;;;;;;;;;;4662905;30;20088;-84
2021/07/15 05:33:29;;;;;;;8.30;4.65;;;;;;;;;;4667112;30;20048;-84
2021/07/15 05:35:55;;;;;;;6.93;4.57;;;;;;;;;;4653638;30;20042;-84
2021/07/15 05:38:20;;;;;;;6.97;4.68;;;;;;;;;;4666716;30;20033;-84
2021/07/15 05:40:46;;;;;;;7.45;4.30;;;;;;;;;;4667229;30;20052;-84
2021/07/15 05:43:12;;;;;;;6.13;4.07;;;;;;;;;;4681646;30;20042;-84
2021/07/15 05:45:37;;;;;;;5.30;4.03;;;;;;;;;;4667234;30;20026;-84
2021/07/15 05:48:03;;;;;;;7.05;3.90;;;;;;;;;;4667167;30;20038;-84
2021/07/15 05:50:28;;;;;;;4.50;3.45;;;;;;;;;;4646276;30;20508;-83
2021/07/15 05:52:54;;;;;;;4.82;3.35;;;;;;;;;;4665564;30;20045;-83
2021/07/15 05:55:19;;;;;;;5.38;3.60;;;;;;;;;;4665833;30;20038;-82
2021/07/15 05:57:44;;;;;;;5.70;3.53;;;;;;;;;;4668926;30;20084;-83
2021/07/15 06:00:12;;;;;;;8.10;3.85;;;;;;;;;;4667584;30;20388;-83
2021/07/15 06:02:37;;;;;;;9.68;4.60;;;;;;;;;;4667634;30;20045;-83
2021/07/15 06:05:04;;;;;;;6.72;4.65;;;;;;;;;;4682425;30;20049;-83
2021/07/15 06:07:29;;;;;;;8.75;5.80;;;;;;;;;;4683735;30;20057;-83
2021/07/15 06:09:55;;;;;;;6.50;4.82;;;;;;;;;;4653385;30;20065;-83
2021/07/15 06:12:20;;;;;;;8.57;5.40;;;;;;;;;;4665853;30;20515;-83
2021/07/15 06:14:46;;;;;;;10.30;6.93;;;;;;;;;;4681841;30;20030;-83
2021/07/15 06:17:11;;;;;;;12.35;6.70;;;;;;;;;;4682981;30;20439;-83
2021/07/15 06:19:37;;;;;;;12.35;7.63;;;;;;;;;;4679015;30;20035;-83
2021/07/15 06:22:03;;;;;;;13.32;7.68;;;;;;;;;;4653183;30;20033;-83
2021/07/15 06:24:28;;;;;;;10.57;6.93;;;;;;;;;;4684287;30;20400;-83
2021/07/15 06:26:54;;;;;;;10.77;6.75;;;;;;;;;;4675876;30;20484;-83
2021/07/15 06:29:20;;;;;;;8.95;7.10;;;;;;;;;;4667023;30;20042;-83
2021/07/15 06:31:45;;;;;;;14.68;8.52;;;;;;;;;;4670571;30;20499;-84
2021/07/15 06:34:11;;;;;;;12.43;8.68;;;;;;;;;;4655754;30;20142;-84
2021/07/15 06:36:38;;;;;;;14.15;9.90;;;;;;;;;;4687687;30;20038;-83
2021/07/15 06:39:19;;;;;;;13.80;9.02;;;;;;;;;;4670754;30;21559;-84
2021/07/15 06:41:45;;;;;;;14.77;9.70;;;;;;;;;;4671205;30;20042;-84
2021/07/15 06:44:11;;;;;;;13.77;9.57;;;;;;;;;;4669607;30;20034;-83
2021/07/15 06:46:38;;;;;;;13.45;10.00;;;;;;;;;;4668621;30;20030;-83
2021/07/15 06:49:04;;;;;;;16.88;11.48;;;;;;;;;;4670865;30;20036;-83
2021/07/15 06:51:29;;;;;;;15.02;10.73;;;;;;;;;;4684958;30;20038;-83
2021/07/15 06:53:55;;;;;;;14.43;10.10;;;;;;;;;;4671370;30;20042;-83
2021/07/15 06:56:20;;;;;;;14.82;10.88;;;;;;;;;;4682997;30;20042;-83
2021/07/15 06:58:46;;;;;;;13.52;9.70;;;;;;;;;;4670942;30;20092;-83
2021/07/15 07:01:11;;;;;;;15.38;9.27;;;;;;;;;;4652456;30;20053;-83
2021/07/15 07:03:37;;;;;;;15.18;9.40;;;;;;;;;;4666615;30;20118;-83
2021/07/15 07:06:03;;;;;;;14.27;10.00;;;;;;;;;;4664747;30;20578;-83
2021/07/15 07:08:29;;;;;;;14.70;9.57;;;;;;;;;;4655956;30;20034;-83
2021/07/15 07:10:55;;;;;;;15.88;9.10;;;;;;;;;;4653472;30;20034;-83
2021/07/15 07:13:20;;;;;;;12.93;9.25;;;;;;;;;;4664875;30;20109;-81
2021/07/15 07:15:46;;;;;;;11.88;8.15;;;;;;;;;;4676898;30;20046;-81
2021/07/15 07:18:11;;;;;;;13.38;8.88;;;;;;;;;;4682896;30;20038;-81
2021/07/15 07:20:37;;;;;;;12.15;8.27;;;;;;;;;;4662707;30;20423;-81
2021/07/15 07:23:07;;;;;;;11.57;7.90;;;;;;;;;;4669609;30;20042;-81
2021/07/15 07:25:32;;;;;;;14.25;8.98;;;;;;;;;;4681857;30;20034;-80
2021/07/15 07:27:58;;;;;;;13.68;8.55;;;;;;;;;;4667189;30;20042;-80
2021/07/15 07:30:23;;;;;;;11.38;8.02;;;;;;;;;;4652379;30;20062;-80
2021/07/15 07:32:50;;;;;;;11.10;8.10;;;;;;;;;;4662947;30;20511;-80
2021/07/15 07:35:16;;;;;;;11.18;8.00;;;;;;;;;;4652703;30;20404;-81
2021/07/15 07:37:42;;;;;;;9.07;7.70;;;;;;;;;;4664077;30;20107;-81
2021/07/15 07:40:10;;;;;;;9.90;7.72;;;;;;;;;;4663601;30;20772;-81
2021/07/15 07:42:36;;;;;;;9.45;6.13;;;;;;;;;;4663567;30;20042;-81
2021/07/15 07:45:04;;;;;;;9.93;7.05;;;;;;;;;;4677412;30;20042;-81
2021/07/15 07:47:30;;;;;;;8.25;6.63;;;;;;;;;;4662950;30;20442;-80
2021/07/15 07:49:55;;;;;;;11.90;7.57;;;;;;;;;;4664761;30;20132;-80
2021/07/15 07:52:21;;;;;;;8.75;6.50;;;;;;;;;;4650338;30;20581;-81
2021/07/15 07:54:46;;;;;;;10.02;6.35;;;;;;;;;;4663965;30;20038;-81
2021/07/15 07:57:11;;;;;;;8.70;6.05;;;;;;;;;;4674576;30;20105;-81
2021/07/15 07:59:37;;;;;;;9.82;6.00;;;;;;;;;;4657459;30;20853;-80
2021/07/15 08:02:03;;;;;;;9.77;6.80;;;;;;;;;;4680073;30;20096;-80
2021/07/15 08:04:28;;;;;;;9.52;6.43;;;;;;;;;;4659167;30;20049;-80
2021/07/15 08:06:55;;;;;;;8.63;5.85;;;;;;;;;;4674879;30;20085;-80
2021/07/15 08:09:23;;;;;;;10.77;6.40;;;;;;;;;;4676908;30;20129;-81
2021/07/15 08:11:51;;;;;;;8.65;5.72;;;;;;;;;;4649289;30;20096;-80
2021/07/15 08:14:16;;;;;;;12.02;6.93;;;;;;;;;;4673678;30;20037;-80
2021/07/15 08:16:41;;;;;;;11.52;7.07;;;;;;;;;;4648339;30;20143;-81
2021/07/15 08:19:07;;;;;;;12.65;7.85;;;;;;;;;;4659600;30;20082;-80
2021/07/15 08:21:34;;;;;;;15.52;9.23;;;;;;;;;;4662346;30;20124;-82
2021/07/15 08:23:59;;;;;;;13.98;8.48;;;;;;;;;;4644798;30;20042;-81
2021/07/15 08:26:24;;;;;;;16.80;9.38;;;;;;;;;;4675379;30;20050;-81
2021/07/15 08:28:50;;;;;;;15.32;8.88;;;;;;;;;;4673352;30;20042;-81
2021/07/15 08:31:15;;;;;;;10.25;7.65;;;;;;;;;;4669526;30;20132;-80
2021/07/15 08:33:42;;;;;;;12.70;8.20;;;;;;;;;;4658401;30;20089;-80
2021/07/15 08:36:07;;;;;;;14.48;8.68;;;;;;;;;;4672715;30;20042;-80
2021/07/15 08:38:32;;;;;;;12.73;8.20;;;;;;;;;;4634692;30;20100;-80
2021/07/15 08:40:58;;;;;;;11.25;6.97;;;;;;;;;;4645564;30;20045;-81
2021/07/15 08:43:23;;;;;;;11.88;7.45;;;;;;;;;;4673989;30;20045;-79
2021/07/15 08:45:50;;;;;;;11.52;8.07;;;;;;;;;;4658219;30;20504;-81
2021/07/15 08:48:16;;;;;;;12.30;8.60;;;;;;;;;;4662943;30;20042;-82
2021/07/15 08:50:41;;;;;;;13.20;8.45;;;;;;;;;;4645176;30;20054;-82
2021/07/15 08:53:07;;;;;;;12.32;8.77;;;;;;;;;;4664648;30;20042;-82
2021/07/15 08:58:13;;;;;;;16.27;9.13;;;;;;;;;;4662192;30;20042;-83
2021/07/15 09:00:40;;;;;;;16.40;8.23;;;;;;;;;;4679083;30;20108;-83
2021/07/15 09:03:06;;;;;;;14.52;9.40;;;;;;;;;;4661651;30;20065;-83
2021/07/15 09:05:31;;;;;;;15.65;9.20;;;;;;;;;;4660846;30;20175;-83
2021/07/15 09:07:57;;;;;;;15.07;9.60;;;;;;;;;;4665972;30;20073;-83
2021/07/15 09:10:22;;;;;;;15.73;8.95;;;;;;;;;;4649270;30;20042;-83
2021/07/15 09:12:48;;;;;;;15.85;9.90;;;;;;;;;;4659544;30;20502;-84
2021/07/15 09:15:14;;;;;;;16.20;9.95;;;;;;;;;;4664640;30;20045;-83
2021/07/15 09:17:40;;;;;;;17.65;10.15;;;;;;;;;;4663313;30;20046;-83
2021/07/15 09:20:19;;;;;;;15.90;9.73;;;;;;;;;;4653621;30;20038;-83
2021/07/15 09:23:04;;;;;;;13.30;9.35;;;;;;;;;;4664925;30;20033;-83
2021/07/15 09:25:49;;;;;;;13.38;8.45;;;;;;;;;;4679512;30;20034;-84
2021/07/15 09:28:24;;;;;;;13.80;10.00;;;;;;;;;;4665181;30;20067;-84
2021/07/15 09:30:50;;;;;;;18.33;10.07;;;;;;;;;;4680591;30;20472;-84
2021/07/15 09:33:16;;;;;;;14.18;9.13;;;;;;;;;;4681579;30;20064;-84
2021/07/15 09:35:46;;;;;;;16.40;9.52;;;;;;;;;;4673841;30;20145;-83
2021/07/15 09:38:16;;;;;;;13.20;8.45;;;;;;;;;;4684727;30;20038;-83
2021/07/15 09:40:43;;;;;;;13.48;8.60;;;;;;;;;;4666107;30;20038;-83
2021/07/15 09:43:25;;;;;;;13.45;8.18;;;;;;;;;;4680040;30;20048;-83
2021/07/15 09:45:54;;;;;;;13.27;9.27;;;;;;;;;;4681137;30;20109;-84
2021/07/15 09:48:22;;;;;;;12.65;7.72;;;;;;;;;;4680136;30;20219;-84
2021/07/15 09:50:49;;;;;;;13.20;8.30;;;;;;;;;;4681091;30;20034;-83
2021/07/15 09:53:20;;;;;;;10.43;8.07;;;;;;;;;;4678934;30;20070;-84
2021/07/15 09:55:47;;;;;;;10.05;7.20;;;;;;;;;;4662632;30;20049;-83
2021/07/15 09:58:14;;;;;;;10.10;6.95;;;;;;;;;;4665352;30;20128;-82
2021/07/15 10:00:45;;;;;;;12.00;7.72;;;;;;;;;;4648840;30;20542;-83
2021/07/15 10:03:13;;;;;;;10.73;6.63;;;;;;;;;;4661098;30;20732;-82
2021/07/15 10:05:53;;;;;;;13.15;7.90;;;;;;;;;;4663108;30;20065;-82
2021/07/15 10:08:35;;;;;;;11.93;7.90;;;;;;;;;;4664618;30;20038;-82
2021/07/15 10:11:20;;;;;;;10.82;7.90;;;;;;;;;;4643260;30;20057;-81
2021/07/15 10:14:03;;;;;;;8.43;6.75;;;;;;;;;;4679693;30;20412;-82
2021/07/15 10:16:39;;;;;;;12.03;7.17;;;;;;;;;;4661361;30;20034;-82
2021/07/15 10:19:06;;;;;;;13.05;7.85;;;;;;;;;;4666756;30;20042;-82
2021/07/15 10:21:34;;;;;;;10.45;7.35;;;;;;;;;;4650564;30;20156;-82
2021/07/15 10:24:14;;;;;;;12.88;7.00;;;;;;;;;;4684086;30;20072;-83
2021/07/15 10:26:48;;;;;;;9.50;7.10;;;;;;;;;;4663077;30;20061;-82
2021/07/15 10:29:15;;;;;;;8.35;6.35;;;;;;;;;;4668883;30;20042;-83
2021/07/15 10:31:42;;;;;;;11.95;6.95;;;;;;;;;;4679861;30;20042;-83
2021/07/15 10:34:08;;;;;;;10.18;6.70;;;;;;;;;;4679555;30;20042;-84
2021/07/15 10:36:36;;;;;;;8.55;6.38;;;;;;;;;;4652735;30;20030;-84
2021/07/15 10:39:10;;;;;;;9.55;6.90;;;;;;;;;;4677104;30;20033;-83
2021/07/15 10:41:37;;;;;;;10.23;6.63;;;;;;;;;;4653002;30;20074;-83
2021/07/15 10:44:03;;;;;;;9.13;6.90;;;;;;;;;;4679903;30;20459;-83
2021/07/15 10:46:30;;;;;;;12.88;8.50;;;;;;;;;;4666692;30;21586;-83
2021/07/15 10:48:55;;;;;;;12.13;7.80;;;;;;;;;;4653516;30;20132;-83
2021/07/15 10:51:21;;;;;;;9.57;7.35;;;;;;;;;;4677682;30;20121;-83
2021/07/15 10:53:47;;;;;;;12.20;8.65;;;;;;;;;;4653597;30;20073;-84
2021/07/15 10:56:17;;;;;;;11.02;7.32;;;;;;;;;;4636646;30;20595;-84
2021/07/15 10:58:47;;;;;;;10.75;6.80;;;;;;;;;;4658666;30;20112;-84
2021/07/15 11:01:36;;;;;;;8.85;6.38;;;;;;;;;;4682715;30;20467;-84
2021/07/15 11:04:16;;;;;;;9.95;6.57;;;;;;;;;;4680751;30;20069;-84
2021/07/15 11:06:46;;;;;;;11.00;6.72;;;;;;;;;;4680625;30;20054;-83
2021/07/15 11:09:33;;;;;;;9.98;6.22;;;;;;;;;;4668277;30;20499;-83
2021/07/15 11:12:01;;;;;;;9.52;7.03;;;;;;;;;;4683938;30;20045;-83
2021/07/15 11:14:49;;;;;;;13.20;8.38;;;;;;;;;;4668685;30;20046;-84
2021/07/15 11:17:21;;;;;;;12.25;8.30;;;;;;;;;;4679900;30;20044;-84
2021/07/15 11:20:25;;;;;;;14.93;9.23;;;;;;;;;;4683710;30;20049;-84
2021/07/15 11:22:51;;;;;;;;;;;;;;;;;;4663736;30;20068;-84
2021/07/15 11:25:31;;;;;;;12.50;8.32;;;;;;;;;;4684211;30;20019;-84
2021/07/15 11:28:19;;;;;;;14.43;8.32;;;;;;;;;;4679909;30;20551;-84
2021/07/15 11:30:47;;;;;;;14.20;8.23;;;;;;;;;;4666237;30;20042;-83
2021/07/15 11:33:19;;;;;;;15.50;8.90;;;;;;;;;;4684352;30;20034;-84
2021/07/15 11:35:50;;;;;;;14.85;8.45;;;;;;;;;;4669033;30;20042;-84
2021/07/15 11:38:23;;;;;;;13.52;7.63;;;;;;;;;;4666210;30;20038;-84
2021/07/15 11:40:49;;;;;;;11.85;8.68;;;;;;;;;;4679797;30;20038;-84
2021/07/15 11:43:29;;;;;;;10.68;7.63;;;;;;;;;;4653076;30;20034;-84
2021/07/15 11:46:16;;;;;;;11.75;7.10;;;;;;;;;;4667630;30;20030;-84
2021/07/15 11:48:44;;;;;;;10.98;7.28;;;;;;;;;;4666195;30;20050;-84
2021/07/15 11:51:32;;;;;;;9.20;6.53;;;;;;;;;;4638878;30;20046;-84
2021/07/15 11:54:32;;;;;;;11.07;6.22;;;;;;;;;;4680378;30;20053;-84
2021/07/15 11:57:14;;;;;;;10.80;7.28;;;;;;;;;;4660286;30;20057;-84
2021/07/15 12:00:05;;;;;;;13.48;8.50;;;;;;;;;;4665560;30;20038;-84
2021/07/15 12:02:42;;;;;;;9.52;6.50;;;;;;;;;;4683180;30;20120;-84
2021/07/15 12:05:28;;;;;;;10.23;6.53;;;;;;;;;;4667129;30;20041;-84
2021/07/15 12:08:12;;;;;;;9.82;6.50;;;;;;;;;;4682578;30;20038;-83
2021/07/15 12:10:46;;;;;;;11.77;7.30;;;;;;;;;;4666918;30;20113;-84
2021/07/15 12:13:16;;;;;;;11.15;7.30;;;;;;;;;;4685507;30;20060;-84
2021/07/15 12:15:44;;;;;;;12.02;7.88;;;;;;;;;;4646710;30;20062;-84
2021/07/15 12:18:18;;;;;;;14.73;9.27;;;;;;;;;;4673112;30;20073;-84
2021/07/15 12:20:58;;;;;;;13.60;8.18;;;;;;;;;;4680624;30;20036;-84
2021/07/15 12:23:37;;;;;;;12.00;7.95;;;;;;;;;;4664201;30;20471;-83
2021/07/15 12:26:05;;;;;;;13.73;9.40;;;;;;;;;;4666711;30;20045;-84
2021/07/15 12:28:31;;;;;;;11.93;8.18;;;;;;;;;;4664680;30;20050;-84
2021/07/15 12:31:09;;;;;;;14.32;9.10;;;;;;;;;;4665631;30;20041;-83
2021/07/15 12:33:37;;;;;;;15.43;9.80;;;;;;;;;;4664938;30;20034;-83
2021/07/15 12:36:12;;;;;;;14.73;9.73;;;;;;;;;;4666333;30;20096;-83
2021/07/15 12:38:39;;;;;;;18.80;10.82;;;;;;;;;;4659576;30;20049;-83
2021/07/15 12:41:10;;;;;;;13.73;9.27;;;;;;;;;;4665721;30;20045;-83
2021/07/15 12:43:40;;;;;;;15.77;9.55;;;;;;;;;;4680799;30;20044;-84
2021/07/15 12:46:13;;;;;;;16.10;10.07;;;;;;;;;;4678704;30;20030;-83
2021/07/15 12:48:42;;;;;;;;;;;;;;;;;;4682148;30;20479;-84
2021/07/15 12:51:09;;;;;;;19.92;12.13;;;;;;;;;;4665238;30;19981;-83
2021/07/15 12:53:38;;;;;;;19.75;10.90;;;;;;;;;;4665908;30;20069;-84
2021/07/15 12:56:04;;;;;;;20.70;11.95;;;;;;;;;;4663600;30;21254;-85
2021/07/15 12:58:30;;;;;;;16.48;11.48;;;;;;;;;;4676341;30;20474;-85
2021/07/15 13:01:01;;;;;;;16.65;10.77;;;;;;;;;;4679426;30;20058;-85
2021/07/15 13:03:27;;;;;;;15.50;10.70;;;;;;;;;;4673675;30;20377;-85
2021/07/15 13:05:52;;;;;;;17.60;11.93;;;;;;;;;;4650663;30;20054;-85
2021/07/15 13:08:24;;;;;;;16.05;10.25;;;;;;;;;;4650934;30;20824;-84
2021/07/15 13:16:18;;;;;;;14.95;10.98;;;;;;;;;;4654417;30;20071;-85
2021/07/15 13:18:44;;;;;;;17.20;11.60;;;;;;;;;;4680325;30;20050;-84
2021/07/15 13:21:10;;;;;;;14.77;10.27;;;;;;;;;;4650502;30;20451;-85
2021/07/15 13:23:40;;;;;;;16.95;11.10;;;;;;;;;;4664924;30;20053;-84
2021/07/15 13:26:11;;;;;;;19.85;9.90;;;;;;;;;;4674886;30;20511;-84
2021/07/15 13:28:37;;;;;;;26.92;11.30;;;;;;;;;;4670738;30;20120;-84
2021/07/15 13:31:15;;;;;;;13.63;10.43;;;;;;;;;;4663462;30;20040;-84
2021/07/15 13:33:43;;;;;;;17.80;11.57;;;;;;;;;;4680489;30;20397;-85
2021/07/15 13:36:08;;;;;;;15.18;10.07;;;;;;;;;;4648741;30;20046;-84
2021/07/15 13:38:45;;;;;;;13.15;10.35;;;;;;;;;;4664339;30;20063;-84
2021/07/15 13:41:22;;;;;;;13.80;10.20;;;;;;;;;;4647567;30;20516;-84
2021/07/15 13:43:47;;;;;;;17.83;9.63;;;;;;;;;;4661996;30;20034;-84
2021/07/15 13:46:17;;;;;;;17.10;10.88;;;;;;;;;;4664872;30;20512;-84
2021/07/15 13:48:44;;;;;;;18.10;10.82;;;;;;;;;;4648095;30;20108;-84
2021/07/15 13:51:12;;;;;;;17.52;10.20;;;;;;;;;;4681905;30;20057;-83
2021/07/15 13:53:39;;;;;;;17.25;10.18;;;;;;;;;;4672694;30;20448;-84
2021/07/15 13:56:07;;;;;;;16.17;9.70;;;;;;;;;;4667979;30;20092;-85
2021/07/15 13:58:33;;;;;;;12.15;8.98;;;;;;;;;;4648651;30;20097;-84
2021/07/15 14:00:59;;;;;;;10.30;7.75;;;;;;;;;;4669230;30;20042;-84
2021/07/15 14:03:25;;;;;;;10.68;7.10;;;;;;;;;;4653215;30;20033;-84
2021/07/15 14:05:56;;;;;;;12.70;8.18;;;;;;;;;;4652635;30;20065;-84
2021/07/15 14:08:23;;;;;;;11.60;7.28;;;;;;;;;;4654919;30;20042;-84
2021/07/15 14:10:49;;;;;;;10.15;7.30;;;;;;;;;;4668518;30;20034;-84
2021/07/15 14:13:16;;;;;;;11.45;8.60;;;;;;;;;;4654543;30;20042;-84
2021/07/15 14:15:44;;;;;;;9.80;7.50;;;;;;;;;;4667199;30;20034;-84
2021/07/15 14:18:19;;;;;;;14.35;9.25;;;;;;;;;;4669747;30;20038;-84
2021/07/15 14:20:56;;;;;;;11.73;8.25;;;;;;;;;;4669042;30;20514;-84
2021/07/15 14:23:24;;;;;;;11.50;7.57;;;;;;;;;;4668959;30;20391;-84
2021/07/15 14:25:55;;;;;;;11.77;8.80;;;;;;;;;;4670499;30;20472;-84
2021/07/15 14:28:21;;;;;;;12.48;8.48;;;;;;;;;;4682385;30;20034;-84
2021/07/15 14:30:48;;;;;;;10.60;7.45;;;;;;;;;;4667619;30;20034;-84
2021/07/15 14:33:14;;;;;;;12.88;7.97;;;;;;;;;;4674733;30;20427;-84
2021/07/15 14:35:45;;;;;;;10.05;7.13;;;;;;;;;;4667315;30;20038;-84
2021/07/15 14:38:13;;;;;;;10.43;7.82;;;;;;;;;;4668883;30;20045;-84
2021/07/15 14:40:43;;;;;;;9.82;7.70;;;;;;;;;;4668674;30;20030;-84
2021/07/15 14:43:12;;;;;;;9.52;7.22;;;;;;;;;;4667898;30;20030;-84
2021/07/15 14:45:41;;;;;;;10.75;7.80;;;;;;;;;;4664701;30;20033;-85
2021/07/15 14:48:07;;;;;;;11.43;8.27;;;;;;;;;;4666282;30;20121;-84